Time;durP1;ratioP1;P1;durP2;ratioP2;P2;SDS_P1;SDS_P2;PMS_P1;PMS_P2;Temp;Humidity;BMP_temperature;BMP_pressure;BME280_temperature;BME280_humidity;BME280_pressure;Samples;Min_cycle;Max_cycle;Signal;HPM_P1;HPM_P2
2021/12/19 00:02:03;;;;;;;31.65;28.95;;;;;;;;;;5017778;28;20320;-88
2021/12/19 00:04:38;;;;;;;30.23;27.58;;;;;;;;;;5018338;28;20190;-88
2021/12/19 00:09:51;;;;;;;31.17;28.63;;;;;;;;;;5017179;28;20273;-88
2021/12/19 00:12:18;;;;;;;30.55;27.83;;;;;;;;;;5025687;28;20207;-88
2021/12/19 00:14:48;;;;;;;27.77;25.17;;;;;;;;;;5023456;28;20644;-88
2021/12/19 00:17:15;;;;;;;28.67;26.58;;;;;;;;;;5018878;28;20272;-88
2021/12/19 00:19:45;;;;;;;30.90;28.40;;;;;;;;;;5021502;28;20192;-88
2021/12/19 00:22:13;;;;;;;29.33;26.85;;;;;;;;;;5019840;28;20231;-88
2021/12/19 00:24:40;;;;;;;31.67;28.65;;;;;;;;;;5018890;28;20201;-88
2021/12/19 00:27:08;;;;;;;29.83;27.30;;;;;;;;;;5016444;28;20588;-88
2021/12/19 00:29:35;;;;;;;29.23;26.80;;;;;;;;;;5016201;28;20229;-88
2021/12/19 00:32:05;;;;;;;28.80;26.40;;;;;;;;;;5016711;28;20266;-89
2021/12/19 00:34:32;;;;;;;28.23;26.05;;;;;;;;;;5016976;28;20227;-88
2021/12/19 00:36:59;;;;;;;28.30;26.05;;;;;;;;;;5016376;28;20208;-86
2021/12/19 00:39:27;;;;;;;29.17;26.63;;;;;;;;;;5016712;28;20221;-88
2021/12/19 00:41:54;;;;;;;28.60;26.25;;;;;;;;;;5015417;28;20613;-88
2021/12/19 00:44:24;;;;;;;27.88;25.60;;;;;;;;;;5014696;28;20251;-87
2021/12/19 00:47:03;;;;;;;29.13;26.40;;;;;;;;;;5014343;28;20232;-88
2021/12/19 00:49:33;;;;;;;29.15;26.63;;;;;;;;;;5014268;28;20236;-88
2021/12/19 00:52:00;;;;;;;29.08;26.48;;;;;;;;;;5012447;28;20207;-88
2021/12/19 00:54:28;;;;;;;28.55;26.35;;;;;;;;;;5014091;28;20195;-88
2021/12/19 00:56:55;;;;;;;28.40;26.10;;;;;;;;;;5013797;28;20228;-88
2021/12/19 00:59:23;;;;;;;28.45;26.15;;;;;;;;;;5013938;28;20247;-88
2021/12/19 01:01:50;;;;;;;29.00;26.42;;;;;;;;;;5014122;28;20698;-87
2021/12/19 01:04:19;;;;;;;27.80;25.58;;;;;;;;;;5014100;28;20687;-87
2021/12/19 01:06:49;;;;;;;28.95;26.48;;;;;;;;;;5014265;28;20201;-88
2021/12/19 01:09:16;;;;;;;29.38;26.92;;;;;;;;;;5014031;28;20205;-87
2021/12/19 01:11:48;;;;;;;29.65;27.05;;;;;;;;;;5014144;28;20216;-88
2021/12/19 01:14:16;;;;;;;28.92;26.52;;;;;;;;;;5013903;28;20195;-87
2021/12/19 01:16:43;;;;;;;29.83;27.42;;;;;;;;;;5014380;28;20195;-88
2021/12/19 01:19:11;;;;;;;28.90;26.50;;;;;;;;;;5014224;28;20207;-87
2021/12/19 01:21:39;;;;;;;27.85;25.65;;;;;;;;;;5014248;28;20221;-88
2021/12/19 01:24:08;;;;;;;27.40;25.20;;;;;;;;;;5017241;28;20208;-88
2021/12/19 01:26:36;;;;;;;27.95;25.75;;;;;;;;;;5018753;28;20193;-88
2021/12/19 01:29:03;;;;;;;26.80;24.80;;;;;;;;;;5016067;28;20214;-88
2021/12/19 01:31:30;;;;;;;26.90;24.90;;;;;;;;;;5015834;28;20193;-88
2021/12/19 01:33:58;;;;;;;28.77;26.25;;;;;;;;;;5014967;28;20703;-87
2021/12/19 01:36:25;;;;;;;27.58;25.17;;;;;;;;;;5014796;28;20242;-87
2021/12/19 01:38:53;;;;;;;26.00;23.88;;;;;;;;;;5014354;28;20205;-88
2021/12/19 01:41:22;;;;;;;25.90;23.90;;;;;;;;;;5013838;28;20229;-88
2021/12/19 01:43:49;;;;;;;25.60;23.67;;;;;;;;;;5013146;28;20211;-88
2021/12/19 01:46:16;;;;;;;25.73;23.63;;;;;;;;;;5013467;28;20236;-88
2021/12/19 01:48:44;;;;;;;27.00;24.80;;;;;;;;;;5013204;28;20711;-88
2021/12/19 01:51:11;;;;;;;24.67;22.90;;;;;;;;;;5013325;28;20201;-88
2021/12/19 01:53:39;;;;;;;27.98;25.77;;;;;;;;;;5013643;28;20902;-88
2021/12/19 01:56:07;;;;;;;27.92;25.75;;;;;;;;;;5013463;28;20209;-88
2021/12/19 01:58:37;;;;;;;28.23;25.80;;;;;;;;;;5013468;28;20196;-88
2021/12/19 02:01:05;;;;;;;28.57;26.27;;;;;;;;;;5013488;28;20232;-89
2021/12/19 02:03:32;;;;;;;29.88;27.38;;;;;;;;;;5016193;28;20448;-88
2021/12/19 02:06:00;;;;;;;28.63;26.25;;;;;;;;;;5017525;28;20217;-88
2021/12/19 02:08:27;;;;;;;25.95;23.77;;;;;;;;;;5017434;28;20255;-88
2021/12/19 02:10:55;;;;;;;26.25;24.20;;;;;;;;;;5015958;28;20202;-88
2021/12/19 02:13:22;;;;;;;27.10;24.90;;;;;;;;;;5017037;28;20198;-88
2021/12/19 02:15:51;;;;;;;26.02;23.92;;;;;;;;;;5016923;28;20239;-88
2021/12/19 02:18:19;;;;;;;27.10;25.20;;;;;;;;;;5017332;28;20196;-88
2021/12/19 02:20:51;;;;;;;24.05;22.30;;;;;;;;;;5017255;28;20222;-88
2021/12/19 02:23:19;;;;;;;25.23;23.25;;;;;;;;;;5016909;28;20203;-88
2021/12/19 02:25:47;;;;;;;25.35;23.48;;;;;;;;;;5016841;28;20215;-88
2021/12/19 02:28:14;;;;;;;23.30;21.70;;;;;;;;;;5016961;28;20195;-87
2021/12/19 02:30:42;;;;;;;23.03;21.47;;;;;;;;;;5016751;28;20246;-86
2021/12/19 02:33:12;;;;;;;22.17;20.70;;;;;;;;;;5015208;28;20940;-86
2021/12/19 02:35:41;;;;;;;23.57;21.87;;;;;;;;;;5016841;28;20255;-86
2021/12/19 02:49:20;;;;;;;22.42;20.73;;;;;;;;;;5016147;28;20326;-86
2021/12/19 02:51:48;;;;;;;22.27;20.67;;;;;;;;;;5016592;28;20201;-86
2021/12/19 02:54:17;;;;;;;20.17;18.73;;;;;;;;;;5016243;28;20550;-87
2021/12/19 02:56:44;;;;;;;21.40;20.00;;;;;;;;;;5015886;28;20637;-87
2021/12/19 02:59:12;;;;;;;21.25;19.75;;;;;;;;;;5016430;28;20442;-87
2021/12/19 03:01:41;;;;;;;22.07;20.57;;;;;;;;;;5016453;28;20273;-87
2021/12/19 03:04:08;;;;;;;21.33;19.77;;;;;;;;;;5016190;28;20455;-86
2021/12/19 03:06:36;;;;;;;22.35;20.75;;;;;;;;;;5015928;28;20190;-87
2021/12/19 03:09:07;;;;;;;22.35;20.77;;;;;;;;;;5016132;28;20192;-87
2021/12/19 03:19:47;;;;;;;22.27;20.65;;;;;;;;;;5015939;28;20204;-85
2021/12/19 03:22:14;;;;;;;19.38;18.25;;;;;;;;;;5015696;28;20219;-85
2021/12/19 03:24:42;;;;;;;21.65;20.10;;;;;;;;;;5015869;28;20205;-87
2021/12/19 03:27:10;;;;;;;22.65;21.23;;;;;;;;;;5015756;28;20667;-86
2021/12/19 03:29:38;;;;;;;21.88;20.38;;;;;;;;;;5015641;28;20203;-86
2021/12/19 03:32:05;;;;;;;22.30;20.70;;;;;;;;;;5015612;28;20195;-87
2021/12/19 03:34:35;;;;;;;21.17;19.73;;;;;;;;;;5015369;28;20230;-86
2021/12/19 03:37:02;;;;;;;20.67;19.25;;;;;;;;;;5015539;28;20204;-87
2021/12/19 03:39:38;;;;;;;21.85;20.25;;;;;;;;;;5015298;28;20512;-87
2021/12/19 03:42:06;;;;;;;21.02;19.33;;;;;;;;;;5015080;28;20236;-87
2021/12/19 03:44:35;;;;;;;22.50;20.90;;;;;;;;;;5015043;28;20239;-86
2021/12/19 03:47:02;;;;;;;21.77;19.80;;;;;;;;;;5015365;28;20234;-87
2021/12/19 03:49:29;;;;;;;22.25;20.63;;;;;;;;;;5015014;28;20683;-87
2021/12/19 03:51:57;;;;;;;21.42;20.10;;;;;;;;;;5015408;28;20192;-87
2021/12/19 03:54:24;;;;;;;23.10;21.48;;;;;;;;;;5015335;28;20190;-87
2021/12/19 03:56:51;;;;;;;21.45;20.08;;;;;;;;;;5014939;28;20990;-87
2021/12/19 03:59:19;;;;;;;19.40;18.23;;;;;;;;;;5015039;28;20199;-87
2021/12/19 04:01:51;;;;;;;20.92;19.52;;;;;;;;;;5015221;28;20216;-87
2021/12/19 04:04:19;;;;;;;21.00;19.73;;;;;;;;;;5015148;28;20191;-87
2021/12/19 04:06:46;;;;;;;19.25;18.10;;;;;;;;;;5014191;28;20202;-86
2021/12/19 04:09:14;;;;;;;21.35;19.85;;;;;;;;;;5014860;28;20196;-87
2021/12/19 04:11:41;;;;;;;22.70;20.85;;;;;;;;;;5014785;28;20196;-87
2021/12/19 04:14:08;;;;;;;21.48;20.05;;;;;;;;;;5014862;28;20206;-87
2021/12/19 04:16:36;;;;;;;19.88;18.67;;;;;;;;;;5014663;28;20205;-86
2021/12/19 04:19:05;;;;;;;21.13;19.60;;;;;;;;;;5014813;28;20210;-87
2021/12/19 04:21:32;;;;;;;20.10;18.83;;;;;;;;;;5014386;28;20231;-87
2021/12/19 04:23:59;;;;;;;20.45;19.33;;;;;;;;;;5014628;28;20197;-87
2021/12/19 04:26:26;;;;;;;21.27;19.90;;;;;;;;;;5013562;28;20211;-86
2021/12/19 04:28:54;;;;;;;19.80;18.70;;;;;;;;;;5014428;28;20645;-87
2021/12/19 04:31:21;;;;;;;20.38;19.17;;;;;;;;;;5014784;28;20204;-88
2021/12/19 04:33:49;;;;;;;21.85;20.27;;;;;;;;;;5014653;28;20223;-87
2021/12/19 04:36:25;;;;;;;21.70;20.20;;;;;;;;;;5014642;28;20257;-87
2021/12/19 04:44:45;;;;;;;42.58;39.80;;;;;;;;;;5013513;28;20201;-87
2021/12/19 05:04:23;;;;;;;21.52;20.02;;;;;;;;;;5000446;28;20211;-87
2021/12/19 05:14:02;;;;;;;21.40;20.00;;;;;;;;;;5013991;28;20207;-87
2021/12/19 05:15:12;;;;;;;22.05;20.75;;;;;;;;;;5013544;28;20278;-87
2021/12/19 05:17:40;;;;;;;20.40;19.30;;;;;;;;;;5014000;28;20217;-87
2021/12/19 05:20:14;;;;;;;21.42;20.02;;;;;;;;;;5013667;28;20202;-87
2021/12/19 05:22:47;;;;;;;22.52;21.20;;;;;;;;;;4995984;28;20237;-87
2021/12/19 05:25:17;;;;;;;21.35;20.10;;;;;;;;;;5013413;28;20195;-87
2021/12/19 05:27:45;;;;;;;20.75;19.48;;;;;;;;;;5013532;28;20191;-86
2021/12/19 05:30:13;;;;;;;22.05;20.65;;;;;;;;;;5013598;28;20598;-87
2021/12/19 05:32:41;;;;;;;21.50;20.20;;;;;;;;;;5013299;28;20294;-87
2021/12/19 05:35:10;;;;;;;21.80;20.45;;;;;;;;;;5013286;28;20242;-87
2021/12/19 05:45:53;;;;;;;22.80;21.27;;;;;;;;;;5013286;28;20554;-88
2021/12/19 05:48:20;;;;;;;22.20;20.70;;;;;;;;;;5013245;28;20579;-88
2021/12/19 05:50:48;;;;;;;21.83;20.40;;;;;;;;;;5013362;28;20680;-87
2021/12/19 05:53:15;;;;;;;21.40;20.10;;;;;;;;;;5013336;28;20195;-88
2021/12/19 05:55:44;;;;;;;20.98;19.58;;;;;;;;;;5013676;28;20189;-88
2021/12/19 05:58:12;;;;;;;21.63;20.23;;;;;;;;;;5012983;28;20194;-88
2021/12/19 06:00:39;;;;;;;22.40;20.83;;;;;;;;;;5013562;28;20258;-88
2021/12/19 06:03:07;;;;;;;23.27;21.48;;;;;;;;;;5013241;28;20278;-88
2021/12/19 06:05:34;;;;;;;21.52;20.05;;;;;;;;;;5013419;28;20205;-88
2021/12/19 06:08:02;;;;;;;21.95;20.40;;;;;;;;;;5013216;28;20197;-88
2021/12/19 06:10:29;;;;;;;20.70;19.40;;;;;;;;;;5013231;28;20195;-89
2021/12/19 06:13:00;;;;;;;22.13;20.73;;;;;;;;;;5013526;28;20467;-88
2021/12/19 06:15:28;;;;;;;21.38;20.08;;;;;;;;;;5013495;28;20198;-88
2021/12/19 06:17:55;;;;;;;22.33;20.80;;;;;;;;;;4996327;28;20552;-88
2021/12/19 06:20:24;;;;;;;23.35;21.75;;;;;;;;;;4996315;28;20197;-88
2021/12/19 06:22:52;;;;;;;21.92;20.52;;;;;;;;;;5012841;28;20758;-88
2021/12/19 06:25:19;;;;;;;22.35;20.65;;;;;;;;;;5013048;28;20729;-88
2021/12/19 06:27:47;;;;;;;21.90;20.48;;;;;;;;;;5012981;28;20257;-88
2021/12/19 06:30:16;;;;;;;22.55;21.05;;;;;;;;;;5013368;28;20232;-88
2021/12/19 06:32:43;;;;;;;22.42;21.08;;;;;;;;;;5011958;28;20207;-89
2021/12/19 06:35:18;;;;;;;22.40;20.75;;;;;;;;;;5013176;28;20538;-87
2021/12/19 06:37:45;;;;;;;22.05;20.55;;;;;;;;;;5013064;28;20226;-88
2021/12/19 06:40:17;;;;;;;23.00;21.50;;;;;;;;;;5012910;28;20660;-88
2021/12/19 06:42:45;;;;;;;22.23;20.85;;;;;;;;;;5012376;28;20728;-86
2021/12/19 06:45:13;;;;;;;22.40;21.00;;;;;;;;;;5012821;28;20207;-87
2021/12/19 06:47:42;;;;;;;21.63;20.30;;;;;;;;;;5011397;28;20216;-87
2021/12/19 06:50:12;;;;;;;22.00;20.60;;;;;;;;;;5014494;28;20254;-87
2021/12/19 06:52:39;;;;;;;22.52;21.05;;;;;;;;;;5016504;28;20654;-87
2021/12/19 06:55:07;;;;;;;22.15;20.75;;;;;;;;;;5016126;28;20204;-87
2021/12/19 06:57:35;;;;;;;22.05;20.58;;;;;;;;;;5016346;28;20196;-86
2021/12/19 07:00:02;;;;;;;20.70;19.40;;;;;;;;;;5015218;28;20199;-88
2021/12/19 07:02:30;;;;;;;22.98;21.48;;;;;;;;;;5016036;28;20235;-86
2021/12/19 07:04:59;;;;;;;22.00;20.60;;;;;;;;;;5016411;28;20191;-88
2021/12/19 07:07:26;;;;;;;21.08;19.67;;;;;;;;;;5016332;28;20192;-88
2021/12/19 07:09:53;;;;;;;21.27;20.00;;;;;;;;;;5016188;28;20193;-88
2021/12/19 07:12:26;;;;;;;21.88;20.58;;;;;;;;;;5016105;28;20195;-88
2021/12/19 07:14:53;;;;;;;22.35;20.90;;;;;;;;;;5014894;28;20218;-88
2021/12/19 07:17:20;;;;;;;21.20;19.90;;;;;;;;;;5016302;28;20631;-87
2021/12/19 07:19:48;;;;;;;21.27;19.88;;;;;;;;;;5014523;28;20204;-87
2021/12/19 07:22:18;;;;;;;22.05;20.55;;;;;;;;;;5015984;28;20225;-87
2021/12/19 07:24:46;;;;;;;21.88;20.30;;;;;;;;;;5016010;28;20242;-87
2021/12/19 07:27:13;;;;;;;22.02;20.50;;;;;;;;;;5015772;28;20243;-88
2021/12/19 07:29:41;;;;;;;20.15;18.95;;;;;;;;;;5015553;28;20201;-88
2021/12/19 07:32:10;;;;;;;20.40;19.17;;;;;;;;;;5014966;28;20209;-88
2021/12/19 07:34:38;;;;;;;20.67;19.38;;;;;;;;;;5015711;28;20200;-87
2021/12/19 07:37:06;;;;;;;20.65;19.52;;;;;;;;;;5015517;28;20199;-86
2021/12/19 07:39:53;;;;;;;19.90;18.65;;;;;;;;;;5015180;28;20519;-85
2021/12/19 07:42:20;;;;;;;21.33;20.00;;;;;;;;;;5015193;28;20224;-84
2021/12/19 07:44:48;;;;;;;19.67;18.58;;;;;;;;;;5014661;28;20246;-82
2021/12/19 07:47:16;;;;;;;21.38;20.05;;;;;;;;;;5014850;28;20195;-85
2021/12/19 07:49:43;;;;;;;22.17;20.80;;;;;;;;;;5015670;28;20236;-85
2021/12/19 07:52:10;;;;;;;22.27;20.92;;;;;;;;;;5014778;28;20195;-85
2021/12/19 07:54:39;;;;;;;21.80;20.38;;;;;;;;;;5015029;28;20575;-85
2021/12/19 07:57:06;;;;;;;22.25;20.77;;;;;;;;;;5014667;28;20711;-86
2021/12/19 07:59:34;;;;;;;22.85;21.33;;;;;;;;;;5014814;28;20211;-86
2021/12/19 08:02:02;;;;;;;22.48;21.13;;;;;;;;;;4994767;28;20259;-87
2021/12/19 08:04:30;;;;;;;21.60;20.30;;;;;;;;;;4995356;28;20621;-85
2021/12/19 08:06:57;;;;;;;21.17;19.98;;;;;;;;;;4995318;28;20453;-86
2021/12/19 08:09:36;;;;;;;21.50;20.10;;;;;;;;;;4995862;28;20200;-86
2021/12/19 08:12:05;;;;;;;22.38;20.90;;;;;;;;;;4995459;28;20551;-87
2021/12/19 08:14:33;;;;;;;21.17;20.05;;;;;;;;;;4995262;28;20209;-87
2021/12/19 08:17:00;;;;;;;23.13;21.67;;;;;;;;;;4995314;28;20207;-87
2021/12/19 08:19:28;;;;;;;22.80;21.30;;;;;;;;;;4995252;28;20192;-87
2021/12/19 08:21:55;;;;;;;22.60;21.17;;;;;;;;;;4995271;28;20200;-88
2021/12/19 08:24:22;;;;;;;23.05;21.33;;;;;;;;;;4995402;28;20220;-87
2021/12/19 08:26:50;;;;;;;20.58;19.38;;;;;;;;;;4995190;28;20200;-87
2021/12/19 08:29:19;;;;;;;21.48;20.13;;;;;;;;;;4995114;28;20204;-86
2021/12/19 08:31:46;;;;;;;21.17;19.77;;;;;;;;;;4995076;28;20222;-88
2021/12/19 08:34:13;;;;;;;21.80;20.30;;;;;;;;;;4994974;28;20613;-88
2021/12/19 08:36:41;;;;;;;23.48;21.75;;;;;;;;;;4995344;28;20196;-89
2021/12/19 08:39:11;;;;;;;21.75;20.25;;;;;;;;;;4994981;28;20229;-88
2021/12/19 08:41:38;;;;;;;19.88;18.77;;;;;;;;;;4993734;28;20242;-88
2021/12/19 08:44:07;;;;;;;19.25;18.15;;;;;;;;;;4994978;28;20213;-89
2021/12/19 08:46:35;;;;;;;18.92;17.83;;;;;;;;;;4994330;28;20658;-89
2021/12/19 08:49:03;;;;;;;19.60;18.30;;;;;;;;;;4994797;28;20244;-89
2021/12/19 08:51:31;;;;;;;19.70;18.60;;;;;;;;;;4994604;28;20201;-89
2021/12/19 08:54:00;;;;;;;19.70;18.50;;;;;;;;;;4994827;28;20201;-88
2021/12/19 08:56:27;;;;;;;19.52;18.40;;;;;;;;;;4994472;28;20678;-89
2021/12/19 08:58:55;;;;;;;18.83;17.63;;;;;;;;;;4994496;28;20193;-88
2021/12/19 09:01:22;;;;;;;18.00;17.00;;;;;;;;;;4993183;28;20202;-89
2021/12/19 09:03:51;;;;;;;17.63;16.73;;;;;;;;;;4993201;28;20588;-89
2021/12/19 09:06:18;;;;;;;20.00;18.80;;;;;;;;;;4994560;28;20271;-89
2021/12/19 09:08:46;;;;;;;19.00;18.00;;;;;;;;;;4993445;28;20209;-89
2021/12/19 09:11:13;;;;;;;18.15;17.05;;;;;;;;;;4994513;28;20200;-88
2021/12/19 09:13:41;;;;;;;19.90;18.80;;;;;;;;;;4993711;28;20195;-88
2021/12/19 09:16:08;;;;;;;19.98;18.77;;;;;;;;;;4994447;28;20217;-89
2021/12/19 09:18:36;;;;;;;19.38;18.27;;;;;;;;;;4993267;28;20204;-91
2021/12/19 09:21:05;;;;;;;19.58;18.48;;;;;;;;;;4993319;28;20201;-86
2021/12/19 09:23:33;;;;;;;19.65;18.65;;;;;;;;;;4993364;28;20747;-86
2021/12/19 09:26:01;;;;;;;20.30;19.08;;;;;;;;;;4994686;28;20199;-85
2021/12/19 09:28:28;;;;;;;19.20;18.05;;;;;;;;;;4993591;28;20499;-86
2021/12/19 09:30:56;;;;;;;20.00;18.70;;;;;;;;;;4993405;28;20203;-85
2021/12/19 09:33:23;;;;;;;19.63;18.52;;;;;;;;;;4993606;28;20197;-86
2021/12/19 09:35:50;;;;;;;22.05;20.67;;;;;;;;;;4993336;28;20186;-94
2021/12/19 09:38:20;;;;;;;19.30;18.30;;;;;;;;;;4992726;28;20522;-87
2021/12/19 09:40:48;;;;;;;20.30;19.25;;;;;;;;;;4994929;28;20197;-87
2021/12/19 09:43:41;;;;;;;20.45;19.35;;;;;;;;;;4993783;28;20319;-87
2021/12/19 09:46:10;;;;;;;19.65;18.45;;;;;;;;;;4994067;28;20226;-86
2021/12/19 09:48:39;;;;;;;19.40;18.40;;;;;;;;;;4993329;28;20640;-86
2021/12/19 09:51:06;;;;;;;19.92;18.83;;;;;;;;;;4993382;28;20212;-86
2021/12/19 09:53:35;;;;;;;20.13;18.83;;;;;;;;;;4993558;28;20198;-85
2021/12/19 09:56:03;;;;;;;18.42;17.52;;;;;;;;;;4993500;28;20243;-85
2021/12/19 09:58:32;;;;;;;19.95;18.65;;;;;;;;;;4993684;28;20195;-86
2021/12/19 10:00:59;;;;;;;19.95;18.75;;;;;;;;;;4993299;28;20700;-87
2021/12/19 10:03:27;;;;;;;18.38;17.48;;;;;;;;;;4993318;28;20218;-87
2021/12/19 10:06:09;;;;;;;20.25;18.95;;;;;;;;;;4993760;28;20190;-87
2021/12/19 10:08:38;;;;;;;19.67;18.55;;;;;;;;;;4993246;28;20636;-86
2021/12/19 10:11:13;;;;;;;19.88;18.77;;;;;;;;;;4993389;28;20623;-85
2021/12/19 10:13:41;;;;;;;21.38;20.10;;;;;;;;;;4993522;28;20198;-88
2021/12/19 10:16:24;;;;;;;21.15;19.85;;;;;;;;;;4993152;28;20201;-84
2021/12/19 10:18:51;;;;;;;21.73;20.42;;;;;;;;;;4993500;28;20206;-85
2021/12/19 10:21:19;;;;;;;20.40;19.00;;;;;;;;;;4993591;28;20192;-87
2021/12/19 10:23:48;;;;;;;20.67;19.48;;;;;;;;;;4993234;28;20326;-86
2021/12/19 10:26:15;;;;;;;19.85;18.58;;;;;;;;;;4997243;28;20208;-86
2021/12/19 10:28:50;;;;;;;20.80;19.40;;;;;;;;;;4997134;28;20227;-86
2021/12/19 10:31:17;;;;;;;20.83;19.42;;;;;;;;;;4996952;28;20211;-85
2021/12/19 10:33:45;;;;;;;21.52;20.23;;;;;;;;;;4995806;28;20212;-86
2021/12/19 10:36:12;;;;;;;21.13;19.83;;;;;;;;;;4996420;28;20204;-86
2021/12/19 10:38:43;;;;;;;20.70;19.40;;;;;;;;;;4996714;28;20296;-86
2021/12/19 10:41:13;;;;;;;20.88;19.25;;;;;;;;;;4996509;28;20199;-86
2021/12/19 10:43:44;;;;;;;19.70;18.60;;;;;;;;;;4996158;28;20253;-86
2021/12/19 10:46:12;;;;;;;20.25;18.95;;;;;;;;;;4996642;28;20639;-85
2021/12/19 10:48:41;;;;;;;20.83;19.38;;;;;;;;;;4996519;28;20636;-86
2021/12/19 10:51:09;;;;;;;21.48;20.08;;;;;;;;;;4996432;28;20209;-85
2021/12/19 10:53:38;;;;;;;22.73;20.73;;;;;;;;;;4996493;28;20193;-87
2021/12/19 10:56:08;;;;;;;22.05;20.55;;;;;;;;;;4996691;28;20196;-86
2021/12/19 10:58:39;;;;;;;23.15;21.20;;;;;;;;;;5003103;28;20189;-91
2021/12/19 11:01:08;;;;;;;20.88;19.67;;;;;;;;;;5016244;28;20204;-91
2021/12/19 11:03:37;;;;;;;20.35;19.00;;;;;;;;;;5016560;28;20217;-91
2021/12/19 11:06:14;;;;;;;21.55;20.15;;;;;;;;;;5015882;28;20665;-86
2021/12/19 11:08:42;;;;;;;54.20;50.33;;;;;;;;;;5015475;28;20645;-86
2021/12/19 11:11:10;;;;;;;81.53;70.35;;;;;;;;;;5015502;28;20263;-85
2021/12/19 11:13:38;;;;;;;105.15;86.78;;;;;;;;;;5015193;28;20595;-84
2021/12/19 11:16:06;;;;;;;99.88;80.68;;;;;;;;;;5013978;28;20655;-85
2021/12/19 11:18:34;;;;;;;97.03;86.95;;;;;;;;;;5015512;28;20200;-85
2021/12/19 11:21:01;;;;;;;47.60;44.13;;;;;;;;;;5015176;28;20193;-85
2021/12/19 11:23:29;;;;;;;99.65;81.65;;;;;;;;;;5015012;28;20213;-85
2021/12/19 11:25:57;;;;;;;91.68;82.75;;;;;;;;;;5015331;28;20192;-85
2021/12/19 11:28:24;;;;;;;82.15;74.47;;;;;;;;;;5015387;28;20577;-85
2021/12/19 11:30:54;;;;;;;96.10;87.25;;;;;;;;;;5015304;28;20208;-85
2021/12/19 11:33:31;;;;;;;72.80;67.30;;;;;;;;;;5013770;28;20203;-85
2021/12/19 11:35:59;;;;;;;126.40;96.25;;;;;;;;;;5014363;28;20193;-85
2021/12/19 11:38:26;;;;;;;93.43;78.40;;;;;;;;;;5015092;28;20646;-85
2021/12/19 11:40:54;;;;;;;133.05;97.25;;;;;;;;;;5013485;28;20612;-85
2021/12/19 11:43:21;;;;;;;133.85;94.68;;;;;;;;;;5014845;28;20730;-84
2021/12/19 11:45:59;;;;;;;101.75;85.07;;;;;;;;;;5014688;28;20200;-85
2021/12/19 11:48:31;;;;;;;137.82;98.78;;;;;;;;;;5014209;28;20235;-84
2021/12/19 11:50:59;;;;;;;153.75;93.43;;;;;;;;;;5014970;28;20278;-84
2021/12/19 11:53:28;;;;;;;123.47;95.65;;;;;;;;;;5014333;28;20200;-85
2021/12/19 11:55:57;;;;;;;141.02;94.80;;;;;;;;;;5014628;28;20283;-84
2021/12/19 11:58:27;;;;;;;22.38;20.88;;;;;;;;;;5014888;28;20708;-85
2021/12/19 12:01:09;;;;;;;20.20;18.90;;;;;;;;;;5014665;28;20207;-85
2021/12/19 12:03:43;;;;;;;77.32;57.65;;;;;;;;;;5012574;28;20212;-85
2021/12/19 12:06:44;;;;;;;25.98;23.88;;;;;;;;;;5014123;28;20191;-85
2021/12/19 12:09:32;;;;;;;49.58;41.20;;;;;;;;;;5014212;28;20275;-85
2021/12/19 12:12:09;;;;;;;39.72;37.28;;;;;;;;;;5014254;28;20207;-85
2021/12/19 12:14:40;;;;;;;93.68;83.65;;;;;;;;;;5014394;28;20546;-84
2021/12/19 12:17:11;;;;;;;99.57;68.70;;;;;;;;;;5014167;28;20548;-84
2021/12/19 12:19:41;;;;;;;23.27;21.67;;;;;;;;;;5013854;28;20207;-85
2021/12/19 12:22:34;;;;;;;91.32;82.85;;;;;;;;;;5014059;28;20207;-84
2021/12/19 12:25:14;;;;;;;37.63;35.03;;;;;;;;;;5013693;28;20232;-84
2021/12/19 12:27:43;;;;;;;44.50;41.55;;;;;;;;;;5013611;28;20192;-84
2021/12/19 12:30:12;;;;;;;94.78;85.72;;;;;;;;;;5013993;28;20188;-85
2021/12/19 12:32:39;;;;;;;49.22;45.58;;;;;;;;;;5013804;28;20193;-82
2021/12/19 12:35:11;;;;;;;38.83;36.45;;;;;;;;;;5013644;28;20204;-85
2021/12/19 12:37:38;;;;;;;84.97;78.88;;;;;;;;;;5014065;28;20198;-86
2021/12/19 12:40:16;;;;;;;64.28;59.97;;;;;;;;;;5013706;28;20576;-86
2021/12/19 12:42:58;;;;;;;22.80;21.23;;;;;;;;;;5013498;28;20207;-85
2021/12/19 12:45:26;;;;;;;71.95;67.28;;;;;;;;;;5013262;28;20224;-86
2021/12/19 12:47:54;;;;;;;103.53;94.18;;;;;;;;;;5011680;28;20195;-86
2021/12/19 12:50:23;;;;;;;85.90;78.50;;;;;;;;;;5013979;28;20312;-82
2021/12/19 12:52:51;;;;;;;80.00;71.82;;;;;;;;;;5013114;28;20685;-82
2021/12/19 12:55:18;;;;;;;71.68;66.35;;;;;;;;;;5013376;28;20207;-87
2021/12/19 12:57:46;;;;;;;89.32;82.07;;;;;;;;;;5013145;28;20196;-84
2021/12/19 13:00:19;;;;;;;84.50;78.15;;;;;;;;;;5012772;28;20690;-84
2021/12/19 13:02:55;;;;;;;56.30;52.47;;;;;;;;;;5012838;28;20534;-83
2021/12/19 13:05:24;;;;;;;62.28;58.13;;;;;;;;;;5012817;28;20250;-83
2021/12/19 13:07:51;;;;;;;80.00;73.25;;;;;;;;;;5012416;28;20198;-83
2021/12/19 13:10:18;;;;;;;29.10;27.10;;;;;;;;;;5012853;28;20211;-82
2021/12/19 13:12:47;;;;;;;51.72;48.90;;;;;;;;;;5012383;28;20632;-82
2021/12/19 13:15:15;;;;;;;65.60;61.15;;;;;;;;;;5012252;28;20728;-83
2021/12/19 13:17:43;;;;;;;35.28;32.92;;;;;;;;;;5012487;28;20187;-83
2021/12/19 13:20:11;;;;;;;39.67;36.90;;;;;;;;;;5012254;28;20208;-82
2021/12/19 13:22:43;;;;;;;24.65;22.33;;;;;;;;;;5012425;28;20881;-82
2021/12/19 13:25:12;;;;;;;37.08;34.65;;;;;;;;;;5012414;28;20227;-83
2021/12/19 13:27:40;;;;;;;31.08;28.90;;;;;;;;;;5012581;28;20225;-83
2021/12/19 13:30:11;;;;;;;43.60;41.40;;;;;;;;;;5012139;28;20195;-82
2021/12/19 13:32:39;;;;;;;37.58;35.25;;;;;;;;;;5012519;28;20193;-82
2021/12/19 13:35:09;;;;;;;24.90;23.40;;;;;;;;;;5012195;28;20634;-82
2021/12/19 13:37:48;;;;;;;25.33;23.02;;;;;;;;;;5014479;28;20248;-83
2021/12/19 13:40:16;;;;;;;27.85;25.23;;;;;;;;;;5012647;28;20192;-85
2021/12/19 13:42:45;;;;;;;24.27;22.30;;;;;;;;;;5012389;28;20694;-83
2021/12/19 13:45:30;;;;;;;30.33;27.20;;;;;;;;;;5012502;28;20220;-83
2021/12/19 13:47:58;;;;;;;50.55;47.28;;;;;;;;;;5012216;28;20286;-84
2021/12/19 13:50:26;;;;;;;80.47;74.65;;;;;;;;;;5012225;28;20573;-84
2021/12/19 13:52:55;;;;;;;25.40;23.85;;;;;;;;;;5012466;28;20255;-85
2021/12/19 13:55:22;;;;;;;25.63;23.45;;;;;;;;;;5012351;28;20205;-84
2021/12/19 13:58:03;;;;;;;24.38;22.27;;;;;;;;;;5012772;28;20192;-84
2021/12/19 14:00:32;;;;;;;32.58;30.50;;;;;;;;;;4996855;28;20203;-84
2021/12/19 14:03:00;;;;;;;24.35;22.42;;;;;;;;;;4997044;28;20220;-83
2021/12/19 14:05:31;;;;;;;26.08;24.33;;;;;;;;;;4996656;28;20221;-85
2021/12/19 14:08:00;;;;;;;23.88;22.08;;;;;;;;;;4996924;28;20214;-84
2021/12/19 14:10:27;;;;;;;24.00;22.20;;;;;;;;;;4996490;28;20252;-84
2021/12/19 14:13:06;;;;;;;25.20;23.30;;;;;;;;;;4996297;28;20668;-84
2021/12/19 14:15:34;;;;;;;24.42;22.80;;;;;;;;;;4981381;28;20194;-84
2021/12/19 14:18:22;;;;;;;26.00;24.05;;;;;;;;;;4994112;28;20295;-84
2021/12/19 14:20:49;;;;;;;23.42;21.38;;;;;;;;;;4995908;28;20212;-84
2021/12/19 14:23:18;;;;;;;24.23;22.17;;;;;;;;;;4996765;28;20197;-85
2021/12/19 14:25:46;;;;;;;23.27;21.45;;;;;;;;;;4996441;28;20767;-84
2021/12/19 14:28:22;;;;;;;24.10;22.30;;;;;;;;;;4996626;28;20233;-85
2021/12/19 14:31:03;;;;;;;23.10;21.27;;;;;;;;;;4996860;28;20208;-84
2021/12/19 14:33:30;;;;;;;22.80;21.40;;;;;;;;;;4996928;28;20255;-85
2021/12/19 14:35:58;;;;;;;24.52;22.42;;;;;;;;;;4996443;28;20208;-85
2021/12/19 14:38:27;;;;;;;23.08;21.42;;;;;;;;;;4996534;28;20213;-85
2021/12/19 14:40:59;;;;;;;23.50;21.30;;;;;;;;;;4996368;28;20206;-85
2021/12/19 14:43:29;;;;;;;22.95;21.17;;;;;;;;;;4996249;28;20204;-85
2021/12/19 14:45:57;;;;;;;24.33;22.08;;;;;;;;;;4995973;28;20232;-84
2021/12/19 14:48:30;;;;;;;26.13;23.98;;;;;;;;;;4995985;28;20274;-84
2021/12/19 14:50:59;;;;;;;23.27;21.33;;;;;;;;;;4996470;28;20201;-85
2021/12/19 14:53:28;;;;;;;24.40;21.95;;;;;;;;;;4996218;28;20270;-84
2021/12/19 14:55:57;;;;;;;24.13;22.27;;;;;;;;;;4996106;28;20652;-85
2021/12/19 14:58:25;;;;;;;22.60;21.05;;;;;;;;;;4998729;28;20199;-85
2021/12/19 15:00:56;;;;;;;23.50;21.70;;;;;;;;;;5015815;28;20192;-85
2021/12/19 15:03:24;;;;;;;23.95;21.48;;;;;;;;;;5014386;28;20209;-85
2021/12/19 15:05:51;;;;;;;24.17;22.30;;;;;;;;;;5015486;28;20228;-86
2021/12/19 15:08:23;;;;;;;22.58;20.92;;;;;;;;;;5015399;28;20660;-85
2021/12/19 15:10:52;;;;;;;21.20;19.70;;;;;;;;;;5014879;28;20227;-88
2021/12/19 15:13:20;;;;;;;23.15;21.10;;;;;;;;;;5015169;28;20255;-88
2021/12/19 15:15:48;;;;;;;22.80;20.80;;;;;;;;;;5016094;28;20290;-88
2021/12/19 15:18:15;;;;;;;23.08;21.17;;;;;;;;;;5016473;28;20203;-89
2021/12/19 15:20:43;;;;;;;22.35;20.75;;;;;;;;;;5016256;28;20191;-87
2021/12/19 15:23:10;;;;;;;23.27;21.42;;;;;;;;;;5015984;28;20208;-89
2021/12/19 15:25:38;;;;;;;22.97;21.07;;;;;;;;;;5015798;28;20221;-87
2021/12/19 15:28:06;;;;;;;24.02;22.13;;;;;;;;;;5015670;28;20464;-88